• Join FlightAware (Why Join?)
  • Login
  • US Flag 
06:11AM EDT


 

Airport Tracker/Info


-or-


 

Live Flight TrackerFlight Track Log ✈ AAL289 ✈ 05-May-2012 ✈ KORD - ZSPD / PVG

Flight Track Log - Related Links

Times and Time Zones

All times are in EDT time to prevent confusion due to time zone crossing. See the AAL289 flight status page for this flight to view local times or setup timezone preferences in your user account.

Time Position Orientation Groundspeed Altitude Reporting Facility
EDT Latitude Longitude Course Direction KTS MPH feet Rate Location/Type
01:37PM 42.0504 -87.9078 230° Southwest  Level FlightAware Approximate
01:38PM 42.1529 -87.8333 219° Southwest  Level FlightAware Approximate
01:39PM 41.9833 -88.0167 359° North 235 270 2,600  Level Chicago TRACON
01:43PM 42.3219 -88.0217 North 278 320 10,600 1,500 Climbing Chicago Center
01:44PM 42.4094 -88.0197 355° North 294 338 11,400 840 Climbing Chicago Center
01:45PM 42.4972 -88.0292 356° North 329 379 12,300 1,260 Climbing Chicago Center
01:46PM 42.6014 -88.0383 357° North 368 423 14,000 1,740 Climbing Chicago Center
01:47PM 42.7100 -88.0472 358° North 379 436 15,800 1,860 Climbing Chicago Center
01:48PM 42.8183 -88.0536 357° North 390 449 17,800 1,680 Climbing Chicago Center
01:49PM 42.9269 -88.0625 357° North 385 443 19,200 1,500 Climbing Chicago Center
01:50PM 43.0394 -88.0717 357° North 399 459 20,800 1,500 Climbing Chicago Center
01:51PM 43.1542 -88.0806 357° North 407 468 22,200 1,260 Climbing Chicago Center
01:52PM 43.2731 -88.0897 356° North 413 475 23,400 1,200 Climbing Chicago Center
01:53PM 43.4044 -88.1011 358° North 429 494 24,700 1,080 Climbing Chicago Center
01:54PM 43.5275 -88.1072 356° North 440 506 25,600 840 Climbing Chicago Center
01:56PM 43.8031 -88.1325 356° North 460 529 27,500 840 Climbing Minneapolis Center
01:57PM 43.9331 -88.1436 356° North 466 536 28,400 900 Climbing Minneapolis Center
01:58PM 44.0608 -88.1553 357° North 466 536 29,300 1,080 Climbing Minneapolis Center
01:59PM 44.1903 -88.1636 357° North 466 536 30,600 1,320 Climbing Minneapolis Center
02:00PM 44.3139 -88.1728 357° North 456 525 32,000 660 Climbing Minneapolis Center
02:01PM 44.4353 -88.1819 357° North 443 510 32,000  Level Minneapolis Center
02:02PM 44.5586 -88.1911 North 443 510 32,000  Level Minneapolis Center
02:03PM 44.6847 -88.1678 North 448 516 32,000  Level Minneapolis Center
02:04PM 44.7983 -88.1456 North 453 521 32,000  Level Minneapolis Center
02:05PM 44.9244 -88.1192 North 458 527 32,000  Level Minneapolis Center
02:06PM 45.0544 -88.0922 North 463 533 32,000  Level Minneapolis Center
02:07PM 45.1783 -88.0658 10° North 458 527 32,000  Level Minneapolis Center
02:08PM 45.3042 -88.0331 North 458 527 32,000  Level Minneapolis Center
02:09PM 45.4278 -88.0064 North 458 527 32,000  Level Minneapolis Center
02:10PM 45.5497 -87.9797 North 452 520 32,000  Level Minneapolis Center
02:11PM 45.6881 -87.9514 11° North 447 514 32,000  Level Minneapolis Center
02:12PM 45.8075 -87.9186 North 442 509 32,000  Level Minneapolis Center
02:13PM 45.9211 -87.8983 10° North 448 516 32,000  Level Minneapolis Center
02:14PM 46.0428 -87.8681 10° North 443 510 32,000  Level Minneapolis Center
02:15PM 46.1622 -87.8381 North 438 504 32,000  Level Minneapolis Center
02:16PM 46.2842 -87.8136 North 438 504 32,000  Level Minneapolis Center
02:17PM 46.4183 -87.7847 North 443 510 32,000  Level Minneapolis Center
02:18PM 46.5378 -87.7572 North 443 510 32,000  Level Minneapolis Center
02:19PM 46.6617 -87.7292 North 443 510 32,000  Level Minneapolis Center
02:20PM 46.7811 -87.7014 North 443 510 32,000  Level Minneapolis Center
02:21PM 46.9028 -87.6731 North 443 510 32,000  Level Minneapolis Center
02:22PM 47.0225 -87.6481 10° North 443 510 32,000  Level Minneapolis Center
02:23PM 47.1397 -87.6169 10° North 437 503 32,000  Level Minneapolis Center
02:24PM 47.2489 -87.5897 26° Northeast 431 496 32,000  Level Minneapolis Center
02:25PM 47.3500 -87.5167 11° North 440 506 32,000  Level Winnipeg Center
02:26PM 47.4667 -87.4833 North 440 506 32,000  Level Winnipeg Center
02:27PM 47.5833 -87.4667 10° North 440 506 32,000  Level Winnipeg Center
02:28PM 47.7167 -87.4333 13° North 440 506 32,000  Level Winnipeg Center
02:29PM 47.8167 -87.4000 10° North 440 506 32,000  Level Winnipeg Center
02:30PM 47.9500 -87.3667 North 450 518 32,000  Level Winnipeg Center
02:31PM 48.0667 -87.3500 North 440 506 32,000  Level Winnipeg Center
02:32PM 48.2000 -87.3167 North 440 506 32,000  Level Winnipeg Center
02:33PM 48.3167 -87.3000 11° North 440 506 32,000  Level Winnipeg Center
02:34PM 48.4333 -87.2667 North 440 506 32,000  Level Winnipeg Center
02:35PM 48.5667 -87.2500 11° North 450 518 32,000  Level Winnipeg Center
02:36PM 48.6833 -87.2167 North 450 518 32,000  Level Winnipeg Center
02:37PM 48.8167 -87.2000 11° North 450 518 32,000  Level Winnipeg Center
02:38PM 48.9333 -87.1667 North 440 506 32,000  Level Winnipeg Center
02:39PM 49.0500 -87.1500 North 440 506 32,000  Level Winnipeg Center
02:40PM 49.1833 -87.1167 North 440 506 32,000  Level Winnipeg Center
02:41PM 49.3000 -87.1000 11° North 440 506 32,000  Level Winnipeg Center
02:42PM 49.4167 -87.0667 North 440 506 32,000  Level Winnipeg Center
02:43PM 49.5500 -87.0500 12° North 440 506 32,000  Level Winnipeg Center
02:44PM 49.6500 -87.0167 North 450 518 32,000  Level Winnipeg Center
02:45PM 49.7833 -87.0000 10° North 450 518 32,000  Level Winnipeg Center
02:46PM 49.9000 -86.9667 North 450 518 32,000  Level Winnipeg Center
02:47PM 50.0333 -86.9333 North 450 518 32,000  Level Winnipeg Center
02:48PM 50.1500 -86.9167 10° North 450 518 32,000  Level Winnipeg Center
02:49PM 50.2667 -86.8833 360° North 450 518 32,000  Level Winnipeg Center
02:50PM 50.4000 -86.8833 26° Northeast 440 506 32,000  Level Winnipeg Center
02:51PM 50.4667 -86.8333 North 440 506 32,000  Level Edmonton Center
02:52PM 50.6000 -86.8167 North 440 506 32,000  Level Edmonton Center
02:53PM 50.7167 -86.8000 North 440 506 32,000  Level Edmonton Center
02:54PM 50.8500 -86.7667 North 450 518 32,000  Level Edmonton Center
02:55PM 50.9667 -86.7500 North 450 518 32,000  Level Edmonton Center
02:56PM 51.1000 -86.7167 North 450 518 32,000  Level Edmonton Center
02:57PM 51.2333 -86.7000 North 450 518 32,000  Level Edmonton Center
02:58PM 51.3667 -86.6667 North 460 529 32,000  Level Edmonton Center
02:59PM 51.4833 -86.6500 North 450 518 32,000  Level Edmonton Center
03:00PM 51.6500 -86.6333 20° North 470 541 32,000  Level Winnipeg Center
03:01PM 51.7333 -86.5833 North 460 529 32,000  Level Edmonton Center
03:02PM 51.8667 -86.5500 North 460 529 32,000  Level Edmonton Center
03:03PM 51.9833 -86.5333 North 460 529 32,000  Level Edmonton Center
03:04PM 52.1167 -86.5000 360° North 460 529 32,000  Level Edmonton Center
03:05PM 52.2500 -86.5000 10° North 470 541 32,000  Level Edmonton Center
03:06PM 52.3667 -86.4667 North 470 541 32,000  Level Edmonton Center
03:07PM 52.5000 -86.4333 North 470 541 32,000  Level Edmonton Center
03:08PM 52.6333 -86.4000 North 470 541 32,000  Level Edmonton Center
03:09PM 52.7667 -86.3667 360° North 470 541 32,000  Level Edmonton Center
03:10PM 52.9000 -86.3667 North 480 552 32,000  Level Edmonton Center
03:11PM 53.0333 -86.3333 North 480 552 32,000  Level Edmonton Center
03:12PM 53.1667 -86.3167 North 480 552 32,000  Level Edmonton Center
03:13PM 53.3000 -86.2833 13° North 470 541 32,000  Level Edmonton Center
03:14PM 53.4333 -86.2333 North 470 541 32,000  Level Edmonton Center
03:15PM 53.5500 -86.2167 North 470 541 32,000  Level Edmonton Center
03:16PM 53.6833 -86.2000 North 470 541 32,000  Level Edmonton Center
03:17PM 53.8167 -86.1667 North 470 541 32,000  Level Edmonton Center
03:18PM 53.9500 -86.1333 North 470 541 32,000  Level Edmonton Center
03:19PM 54.0667 -86.1167 North 470 541 32,000  Level Edmonton Center
03:20PM 54.2000 -86.0833 12° North 470 541 32,000  Level Edmonton Center
03:21PM 54.3333 -86.0333 360° North 470 541 32,000  Level Edmonton Center
03:22PM 54.4500 -86.0333 North 470 541 32,000  Level Edmonton Center
03:23PM 54.5833 -86.0000 North 470 541 32,000  Level Edmonton Center
03:24PM 54.7167 -85.9667 North 470 541 32,000  Level Edmonton Center
03:25PM 54.8500 -85.9333 360° North 470 541 32,000  Level Edmonton Center
03:26PM 54.9833 -85.9333 North 470 541 32,000  Level Edmonton Center
03:27PM 55.1167 -85.9167 360° North 460 529 32,000  Level Edmonton Center
03:28PM 55.2333 -85.9167 360° North 450 518 32,000  Level Edmonton Center
03:29PM 55.3833 -85.9167 360° North 450 518 32,000  Level Edmonton Center
03:30PM 55.5000 -85.9167 360° North 460 529 32,000  Level Edmonton Center
03:31PM 55.6167 -85.9167 360° North 450 518 32,000  Level Edmonton Center
03:32PM 55.7500 -85.9167 North 450 518 32,000  Level Edmonton Center
03:33PM 55.8667 -85.9000 360° North 440 506 32,000  Level Edmonton Center
03:34PM 55.9833 -85.9000 352° North 450 518 32,000  Level Edmonton Center
03:35PM 56.1167 -85.9333 North 450 518 32,000  Level Edmonton Center
03:36PM 56.2500 -85.9167 360° North 450 518 32,000  Level Edmonton Center
03:37PM 56.3833 -85.9167 353° North 450 518 32,000  Level Edmonton Center
03:45PM 57.4273 -86.2089 353° North  Level FlightAware Approximate
03:46PM 57.5594 -86.2471 353° North  Level FlightAware Approximate
03:47PM 57.6915 -86.2856 353° North  Level FlightAware Approximate
03:48PM 57.8236 -86.3243 353° North  Level FlightAware Approximate
03:49PM 57.9556 -86.3633 353° North  Level FlightAware Approximate
03:50PM 58.0877 -86.4027 353° North  Level FlightAware Approximate
03:51PM 58.2197 -86.4423 353° North  Level FlightAware Approximate
03:52PM 58.3517 -86.4822 353° North  Level FlightAware Approximate
03:53PM 58.4837 -86.5224 353° North  Level FlightAware Approximate
03:54PM 58.6157 -86.5629 353° North  Level FlightAware Approximate
03:55PM 58.7477 -86.6037 353° North  Level FlightAware Approximate
03:56PM 58.8797 -86.6448 353° North  Level FlightAware Approximate
03:57PM 59.0117 -86.6863 353° North  Level FlightAware Approximate
03:58PM 59.1436 -86.7280 353° North  Level FlightAware Approximate
03:59PM 59.2755 -86.7701 353° North  Level FlightAware Approximate
04:00PM 59.4075 -86.8125 353° North  Level FlightAware Approximate
04:01PM 59.5394 -86.8552 353° North  Level FlightAware Approximate
04:02PM 59.6712 -86.8983 353° North  Level FlightAware Approximate
04:03PM 59.8031 -86.9417 353° North  Level FlightAware Approximate
04:04PM 59.9350 -86.9855 353° North  Level FlightAware Approximate
04:05PM 60.0668 -87.0296 353° North  Level FlightAware Approximate
04:06PM 60.1987 -87.0741 353° North  Level FlightAware Approximate
04:07PM 60.3305 -87.1189 353° North  Level FlightAware Approximate
04:08PM 60.4575 -87.1625 353° North  Level FlightAware Approximate
04:09PM 60.5845 -87.2063 353° North  Level FlightAware Approximate
04:10PM 60.7115 -87.2505 353° North  Level FlightAware Approximate
04:11PM 60.8384 -87.2951 353° North  Level FlightAware Approximate
04:12PM 60.9654 -87.3400 353° North  Level FlightAware Approximate
04:13PM 61.0923 -87.3853 353° North  Level FlightAware Approximate
04:14PM 61.2192 -87.4310 353° North  Level FlightAware Approximate
04:15PM 61.3461 -87.4770 353° North  Level FlightAware Approximate
04:16PM 61.4730 -87.5234 353° North  Level FlightAware Approximate
04:17PM 61.5999 -87.5702 353° North  Level FlightAware Approximate
04:18PM 61.7267 -87.6174 353° North  Level FlightAware Approximate
04:19PM 61.8536 -87.6649 353° North  Level FlightAware Approximate
04:20PM 61.9804 -87.7129 353° North  Level FlightAware Approximate
04:21PM 62.1072 -87.7612 353° North  Level FlightAware Approximate
04:22PM 62.2340 -87.8100 353° North  Level FlightAware Approximate
04:23PM 62.3608 -87.8592 353° North  Level FlightAware Approximate
04:24PM 62.4863 -87.9206 353° North  Level FlightAware Approximate
04:25PM 62.6131 -87.9701 353° North  Level FlightAware Approximate
04:26PM 62.7399 -88.0199 353° North  Level FlightAware Approximate
04:27PM 62.8666 -88.0702 353° North  Level FlightAware Approximate
04:28PM 62.9933 -88.1209 353° North  Level FlightAware Approximate
04:29PM 63.1200 -88.1721 353° North  Level FlightAware Approximate
04:30PM 63.2467 -88.2237 353° North  Level FlightAware Approximate
04:31PM 63.3734 -88.2757 353° North  Level FlightAware Approximate
04:32PM 63.5001 -88.3282 353° North  Level FlightAware Approximate
04:33PM 63.6267 -88.3812 353° North  Level FlightAware Approximate
04:34PM 63.7533 -88.4347 353° North  Level FlightAware Approximate
04:35PM 63.8799 -88.4886 353° North  Level FlightAware Approximate
04:36PM 64.0065 -88.5431 353° North  Level FlightAware Approximate
04:37PM 64.1330 -88.5980 353° North  Level FlightAware Approximate
04:38PM 64.2596 -88.6534 353° North  Level FlightAware Approximate
04:39PM 64.3861 -88.7093 353° North  Level FlightAware Approximate
04:40PM 64.5126 -88.7658 353° North  Level FlightAware Approximate
04:41PM 64.6391 -88.8228 353° North  Level FlightAware Approximate
04:42PM 64.7655 -88.8803 353° North  Level FlightAware Approximate
04:43PM 64.8919 -88.9383 353° North  Level FlightAware Approximate
04:44PM 65.0183 -88.9969 353° North  Level FlightAware Approximate
04:45PM 65.1447 -89.0561 353° North  Level FlightAware Approximate
04:46PM 65.2711 -89.1158 353° North  Level FlightAware Approximate
04:47PM 65.3974 -89.1761 354° North  Level FlightAware Approximate
04:48PM 65.5237 -89.2370 354° North  Level FlightAware Approximate
04:49PM 65.6500 -89.2985 354° North  Level FlightAware Approximate
04:50PM 65.7763 -89.3606 354° North  Level FlightAware Approximate
04:51PM 65.9025 -89.4232 354° North  Level FlightAware Approximate
04:52PM 66.0287 -89.4866 354° North  Level FlightAware Approximate
04:53PM 66.1549 -89.5505 354° North  Level FlightAware Approximate
04:54PM 66.2810 -89.6151 354° North  Level FlightAware Approximate
04:55PM 66.4072 -89.6803 355° North  Level FlightAware Approximate
04:56PM 66.5333 -89.7462 355° North  Level FlightAware Approximate
04:57PM 66.6593 -89.8128 355° North  Level FlightAware Approximate
04:58PM 66.7854 -89.8800 355° North  Level FlightAware Approximate
04:59PM 66.9114 -89.9480 356° North  Level FlightAware Approximate
05:00PM 67.0364 -90.0264 356° North  Level FlightAware Approximate
05:01PM 67.1628 -90.0904 356° North  Level FlightAware Approximate
05:02PM 67.2887 -90.1606 357° North  Level FlightAware Approximate
05:03PM 67.4146 -90.2316 357° North  Level FlightAware Approximate
05:04PM 67.5404 -90.3034 358° North  Level FlightAware Approximate
05:05PM 67.6662 -90.3759 359° North  Level FlightAware Approximate
05:06PM 67.7920 -90.4492 359° North  Level FlightAware Approximate
05:07PM 67.9177 -90.5232 360° North  Level FlightAware Approximate
05:08PM 68.0435 -90.5981 North  Level FlightAware Approximate
05:09PM 68.1691 -90.6738 North  Level FlightAware Approximate
05:10PM 68.2948 -90.7504 North  Level FlightAware Approximate
05:11PM 68.4204 -90.8278 North  Level FlightAware Approximate
05:12PM 68.5460 -90.9060 North  Level FlightAware Approximate
05:13PM 68.6715 -90.9851 12° North  Level FlightAware Approximate
05:14PM 68.7970 -91.0651 16° North  Level FlightAware Approximate
05:15PM 68.9225 -91.1461 22° Northeast  Level FlightAware Approximate
05:16PM 69.0479 -91.2279 30° Northeast  Level FlightAware Approximate
05:17PM 69.1733 -91.3107 42° Northeast  Level FlightAware Approximate
05:18PM 69.2986 -91.3945 59° Northeast  Level FlightAware Approximate
05:19PM 69.4239 -91.4792 80° East  Level FlightAware Approximate
05:20PM 69.5492 -91.5649 100° East  Level FlightAware Approximate
05:21PM 69.4833 -90.5000 345° North 460 529 34,000  Level Edmonton Center
05:21PM 69.6744 -91.6516 345° North  Level FlightAware Approximate
05:22PM 69.7996 -91.7394 345° North  Level FlightAware Approximate
05:23PM 69.9247 -91.8282 345° North  Level FlightAware Approximate
05:24PM 70.0498 -91.9181 345° North  Level FlightAware Approximate
05:25PM 70.1749 -92.0090 345° North  Level FlightAware Approximate
05:32PM 70.3792 -91.1410 344° North  Level FlightAware Approximate
05:33PM 70.5061 -91.2465 344° North  Level FlightAware Approximate
05:34PM 70.6331 -91.3533 344° North  Level FlightAware Approximate
05:35PM 70.7600 -91.4614 344° North  Level FlightAware Approximate
05:36PM 70.8868 -91.5709 344° North  Level FlightAware Approximate
05:37PM 71.0135 -91.6818 344° North  Level FlightAware Approximate
05:38PM 71.1402 -91.7942 344° North  Level FlightAware Approximate
05:39PM 71.2668 -91.9080 344° North  Level FlightAware Approximate
05:40PM 71.3933 -92.0233 343° North  Level FlightAware Approximate
05:41PM 71.5198 -92.1401 343° North  Level FlightAware Approximate
05:42PM 71.6462 -92.2585 343° North  Level FlightAware Approximate
05:43PM 71.7725 -92.3785 343° North  Level FlightAware Approximate
05:44PM 71.8988 -92.5001 343° North  Level FlightAware Approximate
05:45PM 72.0260 -92.6112 343° North  Level FlightAware Approximate
05:46PM 72.1520 -92.7363 343° North  Level FlightAware Approximate
05:47PM 72.2765 -92.8771 343° North  Level FlightAware Approximate
05:48PM 72.4031 -92.9989 342° North  Level FlightAware Approximate
05:49PM 72.5295 -93.1225 342° North  Level FlightAware Approximate
05:50PM 72.6559 -93.2477 342° North  Level FlightAware Approximate
05:51PM 72.7822 -93.3748 342° North  Level FlightAware Approximate
05:52PM 72.9084 -93.5037 342° North  Level FlightAware Approximate
05:53PM 73.0345 -93.6344 342° North  Level FlightAware Approximate
05:54PM 73.1606 -93.7671 342° North  Level FlightAware Approximate
05:55PM 73.2865 -93.9016 342° North  Level FlightAware Approximate
05:56PM 73.4124 -94.0382 341° North  Level FlightAware Approximate
05:57PM 73.5382 -94.1768 341° North  Level FlightAware Approximate
05:58PM 73.6639 -94.3175 341° North  Level FlightAware Approximate
05:59PM 73.7895 -94.4603 341° North  Level FlightAware Approximate
06:00PM 73.9150 -94.6052 341° North  Level FlightAware Approximate
06:01PM 74.0404 -94.7524 341° North  Level FlightAware Approximate
06:02PM 74.1657 -94.9019 341° North  Level FlightAware Approximate
06:03PM 74.2909 -95.0536 340° North  Level FlightAware Approximate
06:04PM 74.4160 -95.2078 340° North  Level FlightAware Approximate
06:05PM 74.5409 -95.3643 340° North  Level FlightAware Approximate
06:06PM 74.6658 -95.5234 340° North  Level FlightAware Approximate
06:07PM 74.7906 -95.6850 340° North  Level FlightAware Approximate
06:08PM 74.9152 -95.8492 339° North  Level FlightAware Approximate
06:09PM 75.0397 -96.0161 339° North  Level FlightAware Approximate
06:10PM 75.1641 -96.1858 339° North  Level FlightAware Approximate
06:11PM 75.2884 -96.3582 339° North  Level FlightAware Approximate
06:12PM 75.4125 -96.5335 339° North  Level FlightAware Approximate
06:13PM 75.5365 -96.7117 339° North  Level FlightAware Approximate
06:14PM 75.6604 -96.8930 338° Northwest  Level FlightAware Approximate
06:15PM 75.7841 -97.0773 338° Northwest  Level FlightAware Approximate
06:16PM 75.9077 -97.2648 338° Northwest  Level FlightAware Approximate
06:17PM 76.0311 -97.4556 338° Northwest  Level FlightAware Approximate
06:18PM 76.1544 -97.6497 338° Northwest  Level FlightAware Approximate
06:19PM 76.2775 -97.8472 337° Northwest  Level FlightAware Approximate
06:20PM 76.4005 -98.0482 337° Northwest  Level FlightAware Approximate
06:21PM 76.5233 -98.2529 337° Northwest  Level FlightAware Approximate
06:22PM 76.6460 -98.4612 337° Northwest  Level FlightAware Approximate
06:23PM 76.7684 -98.6732 336° Northwest  Level FlightAware Approximate
06:24PM 76.8907 -98.8892 336° Northwest  Level FlightAware Approximate
06:25PM 77.0128 -99.1092 336° Northwest  Level FlightAware Approximate
06:26PM 77.1347 -99.3333 336° Northwest  Level FlightAware Approximate
06:27PM 77.2564 -99.5615 336° Northwest  Level FlightAware Approximate
06:28PM 77.3780 -99.7942 335° Northwest  Level FlightAware Approximate
06:29PM 77.4993 -100.0312 335° Northwest  Level FlightAware Approximate
06:30PM 77.6204 -100.2728 335° Northwest  Level FlightAware Approximate
06:31PM 77.7413 -100.5191 334° Northwest  Level FlightAware Approximate
06:32PM 77.8619 -100.7703 334° Northwest  Level FlightAware Approximate
06:33PM 77.9824 -101.0264 334° Northwest  Level FlightAware Approximate
06:34PM 78.1006 -101.3075 334° Northwest  Level FlightAware Approximate
06:35PM 78.2186 -101.5941 333° Northwest  Level FlightAware Approximate
06:36PM 78.3363 -101.8865 333° Northwest  Level FlightAware Approximate
06:37PM 78.4536 -102.1847 333° Northwest  Level FlightAware Approximate
06:38PM 78.5707 -102.4890 332° Northwest  Level FlightAware Approximate
06:39PM 78.6874 -102.7995 332° Northwest  Level FlightAware Approximate
06:40PM 78.8038 -103.1163 332° Northwest  Level FlightAware Approximate
06:41PM 78.9199 -103.4397 332° Northwest  Level FlightAware Approximate
06:42PM 79.0356 -103.7699 331° Northwest  Level FlightAware Approximate
06:43PM 79.1510 -104.1070 331° Northwest  Level FlightAware Approximate
06:44PM 79.2660 -104.4513 331° Northwest  Level FlightAware Approximate
06:45PM 79.3806 -104.8029 330° Northwest  Level FlightAware Approximate
06:46PM 79.4948 -105.1620 330° Northwest  Level FlightAware Approximate
06:47PM 79.6085 -105.5290 329° Northwest  Level FlightAware Approximate
06:48PM 79.7219 -105.9040 329° Northwest  Level FlightAware Approximate
06:49PM 79.8348 -106.2872 329° Northwest  Level FlightAware Approximate
06:50PM 79.9473 -106.6790 328° Northwest  Level FlightAware Approximate
06:51PM 80.0593 -107.0795 328° Northwest  Level FlightAware Approximate
06:52PM 80.1708 -107.4890 328° Northwest  Level FlightAware Approximate
06:53PM 80.2818 -107.9078 327° Northwest  Level FlightAware Approximate
06:54PM 80.3923 -108.3362 327° Northwest  Level FlightAware Approximate
06:55PM 80.5022 -108.7744 326° Northwest  Level FlightAware Approximate
06:56PM 80.6116 -109.2227 326° Northwest  Level FlightAware Approximate
06:57PM 80.7204 -109.6815 325° Northwest  Level FlightAware Approximate
06:58PM 80.8286 -110.1511 325° Northwest  Level FlightAware Approximate
06:59PM 80.9362 -110.6317 324° Northwest  Level FlightAware Approximate
07:00PM 81.0431 -111.1237 324° Northwest  Level FlightAware Approximate
07:01PM 81.1494 -111.6276 323° Northwest  Level FlightAware Approximate
07:02PM 81.2550 -112.1435 323° Northwest  Level FlightAware Approximate
07:03PM 81.3599 -112.6719 322° Northwest  Level FlightAware Approximate
07:04PM 81.4640 -113.2131 322° Northwest  Level FlightAware Approximate
07:05PM 81.5899 -113.0363 321° Northwest  Level FlightAware Approximate
07:06PM 81.6867 -113.6516 320° Northwest  Level FlightAware Approximate
07:07PM 81.7825 -114.2812 320° Northwest  Level FlightAware Approximate
07:08PM 81.8773 -114.9254 319° Northwest  Level FlightAware Approximate
07:09PM 81.9711 -115.5847 319° Northwest  Level FlightAware Approximate
07:10PM 82.0638 -116.2594 318° Northwest  Level FlightAware Approximate
07:11PM 82.1554 -116.9498 318° Northwest  Level FlightAware Approximate
07:12PM 82.2459 -117.6564 317° Northwest  Level FlightAware Approximate
07:13PM 82.3352 -118.3794 317° Northwest  Level FlightAware Approximate
07:14PM 82.4232 -119.1192 316° Northwest  Level FlightAware Approximate
07:15PM 82.5100 -119.8762 315° West  Level FlightAware Approximate
07:16PM 82.5954 -120.6507 315° West  Level FlightAware Approximate
07:17PM 82.6795 -121.4430 314° West  Level FlightAware Approximate
07:18PM 82.7621 -122.2534 314° West  Level FlightAware Approximate
07:19PM 82.8433 -123.0824 313° West  Level FlightAware Approximate
07:20PM 82.9229 -123.9300 313° West  Level FlightAware Approximate
07:21PM 83.0010 -124.7967 312° West  Level FlightAware Approximate
07:22PM 83.0775 -125.6826 312° West  Level FlightAware Approximate
07:23PM 83.1523 -126.5880 311° West  Level FlightAware Approximate
07:24PM 83.2254 -127.5131 311° West  Level FlightAware Approximate
07:25PM 83.2967 -128.4580 311° West  Level FlightAware Approximate
07:26PM 83.3661 -129.4229 310° West  Level FlightAware Approximate
07:27PM 83.4336 -130.4078 310° West  Level FlightAware Approximate
07:28PM 83.4992 -131.4128 310° West  Level FlightAware Approximate
07:29PM 83.5628 -132.4378 311° West  Level FlightAware Approximate
07:30PM 83.6242 -133.4828 311° West  Level FlightAware Approximate
07:31PM 83.6835 -134.5478 312° West  Level FlightAware Approximate
07:32PM 83.7407 -135.6325 314° West  Level FlightAware Approximate
07:33PM 84.2333 -141.0000 360° North 467 537 34,000  Level ETMS Enhanced Traffic Management System
07:33PM 84.2500 -141.0000 180° South 486 559 34,000  Level Anchorage Center
07:33PM 84.2333 -141.0000 290° West 467 537 34,000  Level ETMS Enhanced Traffic Management System
07:33PM 83.7955 -136.7367 301° West  Level FlightAware Approximate
07:34PM 83.8480 -137.8601 300° West  Level FlightAware Approximate
07:35PM 83.8982 -139.0023 300° West  Level FlightAware Approximate
07:36PM 83.9459 -140.1629 299° West  Level FlightAware Approximate
07:40PM 84.5410 -154.7126 275° West 486 559 34,000  Level FlightAware Transoceanic
07:41PM 84.5516 -156.0734 274° West 486 559 34,000  Level FlightAware Transoceanic
07:42PM 84.5592 -157.4388 273° West 486 559 34,000  Level FlightAware Transoceanic
07:43PM 84.5637 -158.8072 271° West 486 559 34,000  Level FlightAware Transoceanic
07:44PM 84.5651 -160.1771 270° West 486 559 34,000  Level FlightAware Transoceanic
07:45PM 84.5634 -161.5469 269° West 486 559 34,000  Level FlightAware Transoceanic
07:46PM 84.5586 -162.9151 267° West 486 559 34,000  Level FlightAware Transoceanic
07:47PM 84.5508 -164.2801 266° West 486 559 34,000  Level FlightAware Transoceanic
07:48PM 84.5399 -165.6405 265° West 486 559 34,000  Level FlightAware Transoceanic
07:49PM 84.5259 -166.9947 263° West 486 559 34,000  Level FlightAware Transoceanic
07:50PM 84.5089 -168.3412 269° West 486 559 34,000  Level FlightAware Transoceanic
07:51PM 84.5063 -169.6742 252° West  Level FlightAware Approximate
07:52PM 84.4647 -170.9423 261° West  Level Estimated
07:53PM 84.3300 -177.5408 253° West  Level FlightAware Approximate
07:54PM 84.2913 -178.7796 252° West  Level FlightAware Approximate
07:55PM 84.2500 179.9987 251° West  Level FlightAware Approximate
07:56PM 84.2061 178.7950 249° West  Level FlightAware Approximate
07:57PM 84.1597 177.6098 248° West  Level FlightAware Approximate
07:58PM 84.1109 176.4437 247° West  Level FlightAware Approximate
07:59PM 84.0597 175.2971 246° West  Level FlightAware Approximate
08:00PM 84.0062 174.1705 245° Southwest  Level FlightAware Approximate
08:01PM 83.9504 173.0643 244° Southwest  Level FlightAware Approximate
08:02PM 83.8924 171.9785 243° Southwest  Level FlightAware Approximate
08:03PM 83.8323 170.9134 242° Southwest  Level FlightAware Approximate
08:04PM 83.7701 169.8692 241° Southwest  Level FlightAware Approximate
08:05PM 83.7059 168.8459 240° Southwest  Level FlightAware Approximate
08:06PM 83.6398 167.8434 239° Southwest  Level FlightAware Approximate
08:07PM 83.5717 166.8618 238° Southwest  Level FlightAware Approximate
08:08PM 83.5018 165.9010 237° Southwest  Level FlightAware Approximate
08:09PM 83.4302 164.9608 236° Southwest  Level FlightAware Approximate
08:10PM 83.3568 164.0410 235° Southwest  Level FlightAware Approximate
08:11PM 83.2818 163.1414 234° Southwest  Level FlightAware Approximate
08:12PM 83.2052 162.2618 233° Southwest  Level FlightAware Approximate
08:13PM 83.1270 161.4020 232° Southwest  Level FlightAware Approximate
08:14PM 83.0473 160.5615 231° Southwest  Level FlightAware Approximate
08:15PM 82.9662 159.7402 231° Southwest  Level FlightAware Approximate
08:16PM 82.8837 158.9377 230° Southwest  Level FlightAware Approximate
08:17PM 82.7998 158.1536 229° Southwest  Level FlightAware Approximate
08:18PM 82.7146 157.3877 228° Southwest  Level FlightAware Approximate
08:19PM 82.6282 156.6394 227° Southwest  Level FlightAware Approximate
08:20PM 82.5405 155.9086 227° Southwest  Level FlightAware Approximate
08:21PM 82.4517 155.1947 226° Southwest  Level FlightAware Approximate
08:22PM 82.3617 154.4975 225° Southwest  Level FlightAware Approximate
08:23PM 82.2707 153.8165 225° Southwest  Level FlightAware Approximate
08:24PM 82.1786 153.1513 224° Southwest  Level FlightAware Approximate
08:25PM 82.0855 152.5016 223° Southwest  Level FlightAware Approximate
08:26PM 81.9914 151.8670 223° Southwest  Level FlightAware Approximate
08:27PM 81.8963 151.2471 222° Southwest  Level FlightAware Approximate
08:28PM 81.8004 150.6415 222° Southwest  Level FlightAware Approximate
08:29PM 81.7035 150.0500 221° Southwest  Level FlightAware Approximate
08:30PM 81.6058 149.4720 220° Southwest  Level FlightAware Approximate
08:31PM 81.5073 148.9073 220° Southwest  Level FlightAware Approximate
08:32PM 81.4080 148.3555 219° Southwest  Level FlightAware Approximate
08:33PM 81.3079 147.8163 219° Southwest  Level FlightAware Approximate
08:34PM 81.2071 147.2893 218° Southwest  Level FlightAware Approximate
08:35PM 81.1056 146.7742 218° Southwest  Level FlightAware Approximate
08:36PM 81.0034 146.2707 217° Southwest  Level FlightAware Approximate
08:37PM 80.9005 145.7784 217° Southwest  Level FlightAware Approximate
08:38PM 80.7969 145.2971 216° Southwest  Level FlightAware Approximate
08:39PM 80.6928 144.8264 216° Southwest  Level FlightAware Approximate
08:40PM 80.5880 144.3661 215° Southwest  Level FlightAware Approximate
08:41PM 80.4827 143.9159 215° Southwest  Level FlightAware Approximate
08:42PM 80.3767 143.4754 214° Southwest  Level FlightAware Approximate
08:43PM 80.2703 143.0445 214° Southwest  Level FlightAware Approximate
08:44PM 80.1633 142.6229 214° Southwest  Level FlightAware Approximate
08:45PM 80.0558 142.2102 213° Southwest  Level FlightAware Approximate
08:46PM 79.9478 141.8063 213° Southwest  Level FlightAware Approximate
08:47PM 79.8393 141.4109 212° Southwest  Level FlightAware Approximate
08:48PM 79.7304 141.0238 212° Southwest  Level FlightAware Approximate
08:49PM 79.6210 140.6448 212° Southwest  Level FlightAware Approximate
08:50PM 79.5112 140.2736 211° Southwest  Level FlightAware Approximate
08:51PM 79.4009 139.9100 211° Southwest  Level FlightAware Approximate
08:52PM 79.2903 139.5539 211° Southwest  Level FlightAware Approximate
08:53PM 79.1793 139.2049 210° Southwest  Level FlightAware Approximate
08:54PM 79.0678 138.8630 210° Southwest  Level FlightAware Approximate
08:55PM 78.9560 138.5279 210° Southwest  Level FlightAware Approximate
08:56PM 78.8438 138.1994 209° Southwest  Level FlightAware Approximate
08:57PM 78.7313 137.8774 209° Southwest  Level FlightAware Approximate
08:58PM 78.6185 137.5617 209° Southwest  Level FlightAware Approximate
08:59PM 78.5053 137.2521 208° Southwest  Level FlightAware Approximate
09:00PM 78.3918 136.9485 208° Southwest  Level FlightAware Approximate
09:01PM 78.2779 136.6507 208° Southwest  Level FlightAware Approximate
09:02PM 78.1641 136.3593 207° Southwest  Level FlightAware Approximate
09:03PM 78.0500 136.0733 207° Southwest  Level FlightAware Approximate
09:04PM 77.9355 135.7926 207° Southwest  Level FlightAware Approximate
09:05PM 77.8208 135.5172 207° Southwest  Level FlightAware Approximate
09:06PM 77.7059 135.2469 206° Southwest  Level FlightAware Approximate
09:07PM 77.5906 134.9814 206° Southwest  Level FlightAware Approximate
09:08PM 77.4752 134.7208 206° Southwest  Level FlightAware Approximate
09:09PM 77.3594 134.4649 206° Southwest  Level FlightAware Approximate
09:10PM 77.2434 134.2136 205° Southwest  Level FlightAware Approximate
09:11PM 77.1272 133.9667 205° Southwest  Level FlightAware Approximate
09:12PM 77.0108 133.7241 205° Southwest  Level FlightAware Approximate
09:13PM 76.8942 133.4858 205° Southwest  Level FlightAware Approximate
09:14PM 76.7773 133.2517 204° Southwest  Level FlightAware Approximate
09:15PM 76.6602 133.0215 204° Southwest  Level FlightAware Approximate
09:16PM 76.5429 132.7953 204° Southwest  Level FlightAware Approximate
09:17PM 76.4255 132.5730 204° Southwest  Level FlightAware Approximate
09:18PM 76.3078 132.3544 204° Southwest  Level FlightAware Approximate
09:19PM 76.1899 132.1394 203° Southwest  Level FlightAware Approximate
09:20PM 76.0719 131.9280 203° Southwest  Level FlightAware Approximate
09:21PM 75.9537 131.7202 203° Southwest  Level FlightAware Approximate
09:22PM 75.8353 131.5157 203° Southwest  Level FlightAware Approximate
09:23PM 75.7167 131.3145 203° Southwest  Level FlightAware Approximate
09:24PM 75.5980 131.1166 202° Southwest  Level FlightAware Approximate
09:25PM 75.4791 130.9218 202° Southwest  Level FlightAware Approximate
09:26PM 75.3600 130.7302 202° Southwest  Level FlightAware Approximate
09:27PM 75.2408 130.5415 202° Southwest  Level FlightAware Approximate
09:28PM 75.1215 130.3559 202° Southwest  Level FlightAware Approximate
09:29PM 75.0020 130.1731 201° Southwest  Level FlightAware Approximate
09:30PM 74.8823 129.9931 201° Southwest  Level FlightAware Approximate
09:31PM 74.7625 129.8159 201° Southwest  Level FlightAware Approximate
09:32PM 74.6426 129.6415 201° Southwest  Level FlightAware Approximate
09:33PM 74.5225 129.4696 201° Southwest  Level FlightAware Approximate
09:34PM 74.4023 129.3004 201° Southwest  Level FlightAware Approximate
09:35PM 74.2820 129.1336 200° South  Level FlightAware Approximate
09:36PM 74.1616 128.9693 200° South  Level FlightAware Approximate
09:37PM 74.0410 128.8075 200° South  Level FlightAware Approximate
09:38PM 73.9203 128.6480 200° South  Level FlightAware Approximate
09:39PM 73.7996 128.4908 200° South  Level FlightAware Approximate
09:40PM 73.6786 128.3359 200° South  Level FlightAware Approximate
09:41PM 73.5576 128.1832 200° South  Level FlightAware Approximate
09:42PM 73.4365 128.0327 199° South  Level FlightAware Approximate
09:43PM 73.3152 127.8843 199° South  Level FlightAware Approximate
09:44PM 73.1939 127.7380 199° South  Level FlightAware Approximate
09:45PM 73.0724 127.5938 199° South  Level FlightAware Approximate
09:46PM 72.9509 127.4515 199° South  Level FlightAware Approximate
09:47PM 72.8292 127.3112 199° South  Level FlightAware Approximate
09:48PM 72.7075 127.1728 199° South  Level FlightAware Approximate
09:49PM 72.5857 127.0363 198° South  Level FlightAware Approximate
09:50PM 72.4638 126.9016 198° South  Level FlightAware Approximate
09:51PM 72.3417 126.7687 198° South  Level FlightAware Approximate
09:52PM 72.2196 126.6376 198° South  Level FlightAware Approximate
09:53PM 72.0975 126.5082 198° South  Level FlightAware Approximate
09:54PM 71.9752 126.3805 198° South  Level FlightAware Approximate
09:55PM 71.8528 126.2545 198° South  Level FlightAware Approximate
09:56PM 71.7304 126.1301 198° South  Level FlightAware Approximate
09:57PM 71.6079 126.0073 197° South  Level FlightAware Approximate
09:58PM 71.4853 125.8861 197° South  Level FlightAware Approximate
09:59PM 71.3626 125.7664 197° South  Level FlightAware Approximate
10:00PM 71.2399 125.6482 197° South  Level FlightAware Approximate
10:01PM 71.1171 125.5315 197° South  Level FlightAware Approximate
10:02PM 70.9942 125.4163 197° South  Level FlightAware Approximate
10:03PM 70.8712 125.3025 197° South  Level FlightAware Approximate
10:04PM 70.7482 125.1901 197° South  Level FlightAware Approximate
10:05PM 70.6251 125.0791 197° South  Level FlightAware Approximate
10:06PM 70.5019 124.9694 196° South  Level FlightAware Approximate
10:07PM 70.3787 124.8610 196° South  Level FlightAware Approximate
10:08PM 70.2554 124.7540 196° South  Level FlightAware Approximate
10:09PM 70.1320 124.6482 196° South  Level FlightAware Approximate
10:10PM 70.0086 124.5437 196° South  Level FlightAware Approximate
10:11PM 69.8851 124.4404 196° South  Level FlightAware Approximate
10:12PM 69.7616 124.3383 196° South  Level FlightAware Approximate
10:13PM 69.6380 124.2374 196° South  Level FlightAware Approximate
10:14PM 69.5143 124.1376 196° South  Level FlightAware Approximate
10:15PM 69.3906 124.0390 196° South  Level FlightAware Approximate
10:16PM 69.2669 123.9415 195° South  Level FlightAware Approximate
10:17PM 69.1431 123.8452 195° South  Level FlightAware Approximate
10:18PM 69.0192 123.7499 195° South  Level FlightAware Approximate
10:19PM 68.8953 123.6557 195° South  Level FlightAware Approximate
10:20PM 68.7713 123.5626 195° South  Level FlightAware Approximate
10:21PM 68.6473 123.4704 195° South  Level FlightAware Approximate
10:22PM 68.5232 123.3793 195° South  Level FlightAware Approximate
10:23PM 68.3991 123.2892 195° South  Level FlightAware Approximate
10:24PM 68.2749 123.2001 195° South  Level FlightAware Approximate
10:25PM 68.1507 123.1119 195° South  Level FlightAware Approximate
10:26PM 68.0264 123.0247 195° South  Level FlightAware Approximate
10:27PM 67.9021 122.9384 195° South  Level FlightAware Approximate
10:28PM 67.7777 122.8531 194° South  Level FlightAware Approximate
10:29PM 67.6533 122.7686 194° South  Level FlightAware Approximate
10:30PM 67.5289 122.6850 194° South  Level FlightAware Approximate
10:31PM 67.4044 122.6023 194° South  Level FlightAware Approximate
10:32PM 67.2799 122.5205 194° South  Level FlightAware Approximate
10:33PM 67.1553 122.4395 194° South  Level FlightAware Approximate
10:34PM 67.0307 122.3593 194° South  Level FlightAware Approximate
10:35PM 66.9061 122.2800 194° South  Level FlightAware Approximate
10:36PM 66.7814 122.2015 194° South  Level FlightAware Approximate
10:37PM 66.6566 122.1237 194° South  Level FlightAware Approximate
10:38PM 66.5320 122.0454 194° South  Level FlightAware Approximate
10:39PM 66.4072 121.9692 194° South  Level FlightAware Approximate
10:40PM 66.2823 121.8937 194° South  Level FlightAware Approximate
10:41PM 66.1575 121.8190 194° South  Level FlightAware Approximate
10:42PM 66.0326 121.7451 193° South  Level FlightAware Approximate
10:43PM 65.9076 121.6718 193° South  Level FlightAware Approximate
10:44PM 65.7826 121.5993 193° South  Level FlightAware Approximate
10:45PM 65.6576 121.5275 193° South  Level FlightAware Approximate
10:46PM 65.5326 121.4563 193° South  Level FlightAware Approximate
10:47PM 65.4075 121.3858 193° South  Level FlightAware Approximate
10:48PM 65.2824 121.3160 193° South  Level FlightAware Approximate
10:49PM 65.1572 121.2469 193° South  Level FlightAware Approximate
10:50PM 65.0321 121.1784 193° South  Level FlightAware Approximate
10:51PM 64.9068 121.1106 193° South  Level FlightAware Approximate
10:52PM 64.7816 121.0433 193° South  Level FlightAware Approximate
10:53PM 64.6563 120.9767 193° South  Level FlightAware Approximate
10:54PM 64.5310 120.9108 193° South  Level FlightAware Approximate
10:55PM 64.4057 120.8454 193° South  Level FlightAware Approximate
10:56PM 64.2803 120.7806 193° South  Level FlightAware Approximate
10:57PM 64.1550 120.7164 193° South  Level FlightAware Approximate
10:58PM 64.0295 120.6527 192° South  Level FlightAware Approximate
10:59PM 63.9041 120.5897 192° South  Level FlightAware Approximate
11:00PM 63.7786 120.5272 192° South  Level FlightAware Approximate
11:01PM 63.6531 120.4653 192° South  Level FlightAware Approximate
11:02PM 63.5276 120.4039 192° South  Level FlightAware Approximate
11:03PM 63.4021 120.3430 192° South  Level FlightAware Approximate
11:04PM 63.2765 120.2827 192° South  Level FlightAware Approximate
11:05PM 63.1509 120.2229 192° South  Level FlightAware Approximate
11:06PM 63.0253 120.1636 192° South  Level FlightAware Approximate
11:07PM 62.8996 120.1048 192° South  Level FlightAware Approximate
11:08PM 62.7739 120.0477 192° South  Level FlightAware Approximate
11:09PM 62.6482 119.9899 192° South  Level FlightAware Approximate
11:10PM 62.5224 119.9325 192° South  Level FlightAware Approximate
11:11PM 62.3967 119.8757 192° South  Level FlightAware Approximate
11:12PM 62.2710 119.8193 192° South  Level FlightAware Approximate
11:13PM 62.1452 119.7634 192° South  Level FlightAware Approximate
11:14PM 62.0193 119.7080 192° South  Level FlightAware Approximate
11:15PM 61.8935 119.6530 192° South  Level FlightAware Approximate
11:16PM 61.7677 119.5985 192° South  Level FlightAware Approximate
11:17PM 61.6418 119.5444 191° South  Level FlightAware Approximate
11:18PM 61.5159 119.4907 191° South  Level FlightAware Approximate
11:19PM 61.3904 119.4377 191° South  Level FlightAware Approximate
11:20PM 61.2649 119.3851 191° South  Level FlightAware Approximate
11:21PM 61.1394 119.3329 191° South  Level FlightAware Approximate
11:22PM 61.0139 119.2812 193° South  Level FlightAware Approximate
11:23PM 60.8897 119.2218 191° South  Level FlightAware Approximate
11:24PM 60.7640 119.1710 191° South  Level FlightAware Approximate
11:25PM 60.6382 119.1205 191° South  Level FlightAware Approximate
11:26PM 60.5125 119.0705 191° South  Level FlightAware Approximate
11:27PM 60.3867 119.0208 191° South  Level FlightAware Approximate
11:28PM 60.2609 118.9715 191° South  Level FlightAware Approximate
11:29PM 60.1350 118.9226 191° South  Level FlightAware Approximate
11:30PM 60.0092 118.8740 191° South  Level FlightAware Approximate
11:31PM 59.8833 118.8259 191° South  Level FlightAware Approximate
11:32PM 59.7574 118.7780 191° South  Level FlightAware Approximate
11:33PM 59.6315 118.7306 191° South  Level FlightAware Approximate
11:34PM 59.5056 118.6835 191° South  Level FlightAware Approximate
11:35PM 59.3797 118.6367 191° South  Level FlightAware Approximate
11:36PM 59.2537 118.5903 191° South  Level FlightAware Approximate
11:37PM 59.1278 118.5443 191° South  Level FlightAware Approximate
11:38PM 59.0018 118.4985 191° South  Level FlightAware Approximate
11:39PM 58.8758 118.4531 191° South  Level FlightAware Approximate
11:40PM 58.7498 118.4081 190° South  Level FlightAware Approximate
11:41PM 58.6237 118.3633 190° South  Level FlightAware Approximate
11:42PM 58.4977 118.3189 190° South  Level FlightAware Approximate
11:43PM 58.3717 118.2748 190° South  Level FlightAware Approximate
11:44PM 58.2456 118.2310 190° South  Level FlightAware Approximate
11:45PM 58.1195 118.1876 190° South  Level FlightAware Approximate
11:46PM 57.9934 118.1444 190° South  Level FlightAware Approximate
11:47PM 57.8673 118.1015 190° South  Level FlightAware Approximate
11:48PM 57.7411 118.0590 190° South  Level FlightAware Approximate
11:49PM 57.6150 118.0167 190° South  Level FlightAware Approximate
11:50PM 57.4888 117.9747 190° South  Level FlightAware Approximate
11:51PM 57.3627 117.9330 189° South  Level FlightAware Approximate
11:52PM 57.2361 117.8954 193° South  Level FlightAware Approximate
11:53PM 57.1111 117.8434 193° South  Level FlightAware Approximate
11:54PM 56.9861 117.7916 193° South  Level FlightAware Approximate
11:55PM 56.8610 117.7402 193° South  Level FlightAware Approximate
11:56PM 56.7360 117.6892 193° South  Level FlightAware Approximate
11:57PM 56.6109 117.6385 193° South  Level FlightAware Approximate
11:58PM 56.4858 117.5881 192° South  Level FlightAware Approximate
11:59PM 56.3606 117.5381 192° South  Level FlightAware Approximate
12:00AM 56.2355 117.4884 192° South  Level FlightAware Approximate
12:01AM 56.1103 117.4390 192° South  Level FlightAware Approximate
12:02AM 55.9851 117.3899 192° South  Level FlightAware Approximate
12:03AM 55.8599 117.3412 192° South  Level FlightAware Approximate
12:04AM 55.7347 117.2927 192° South  Level FlightAware Approximate
12:05AM 55.6094 117.2446 192° South  Level FlightAware Approximate
12:06AM 55.4842 117.1968 192° South  Level FlightAware Approximate
12:07AM 55.3589 117.1492 192° South  Level FlightAware Approximate
12:08AM 55.2336 117.1020 192° South  Level FlightAware Approximate
12:09AM 55.1083 117.0551 192° South  Level FlightAware Approximate
12:10AM 54.9829 117.0085 192° South  Level FlightAware Approximate
12:11AM 54.8576 116.9621 192° South  Level FlightAware Approximate
12:12AM 54.7322 116.9161 192° South  Level FlightAware Approximate
12:13AM 54.6068 116.8703 192° South  Level FlightAware Approximate
12:14AM 54.4814 116.8248 192° South  Level FlightAware Approximate
12:15AM 54.3560 116.7796 192° South  Level FlightAware Approximate
12:16AM 54.2305 116.7347 192° South  Level FlightAware Approximate
12:17AM 54.1051 116.6900 192° South  Level FlightAware Approximate
12:18AM 53.9796 116.6456 192° South  Level FlightAware Approximate
12:19AM 53.8541 116.6015 192° South  Level FlightAware Approximate
12:20AM 53.7286 116.5576 192° South  Level FlightAware Approximate
12:21AM 53.6031 116.5140 192° South  Level FlightAware Approximate
12:22AM 53.4775 116.4707 192° South  Level FlightAware Approximate
12:23AM 53.3520 116.4276 192° South  Level FlightAware Approximate
12:24AM 53.2264 116.3848 192° South  Level FlightAware Approximate
12:25AM 53.1008 116.3422 191° South  Level FlightAware Approximate
12:26AM 52.9752 116.2999 191° South  Level FlightAware Approximate
12:27AM 52.8496 116.2578 191° South  Level FlightAware Approximate
12:28AM 52.7240 116.2159 191° South  Level FlightAware Approximate
12:29AM 52.5983 116.1743 191° South  Level FlightAware Approximate
12:30AM 52.4730 116.1330 191° South  Level FlightAware Approximate
12:31AM 52.3476 116.0920 191° South  Level FlightAware Approximate
12:32AM 52.2222 116.0512 191° South  Level FlightAware Approximate
12:33AM 52.0968 116.0106 191° South  Level FlightAware Approximate
12:34AM 51.9714 115.9703 191° South  Level FlightAware Approximate
12:35AM 51.8459 115.9302 191° South  Level FlightAware Approximate
12:36AM 51.7205 115.8903 194° South  Level FlightAware Approximate
12:37AM 51.5964 115.8408 194° South  Level FlightAware Approximate
12:38AM 51.4722 115.7917 194° South  Level FlightAware Approximate
12:39AM 51.3481 115.7428 194° South  Level FlightAware Approximate
12:40AM 51.2239 115.6942 194° South  Level FlightAware Approximate
12:41AM 51.0997 115.6458 194° South  Level FlightAware Approximate
12:42AM 50.9755 115.5977 194° South  Level FlightAware Approximate
12:43AM 50.8512 115.5498 194° South  Level FlightAware Approximate
12:44AM 50.7270 115.5022 194° South  Level FlightAware Approximate
12:45AM 50.6027 115.4549 194° South  Level FlightAware Approximate
12:46AM 50.4784 115.4078 194° South  Level FlightAware Approximate
12:47AM 50.3541 115.3609 193° South  Level FlightAware Approximate
12:48AM 50.2297 115.3143 193° South  Level FlightAware Approximate
12:49AM 50.1054 115.2680 195° South  Level FlightAware Approximate
12:50AM 49.9819 115.2162 195° South  Level FlightAware Approximate
12:51AM 49.8584 115.1647 195° South  Level FlightAware Approximate
12:52AM 49.7349 115.1134 195° South  Level FlightAware Approximate
12:53AM 49.6114 115.0625 195° South  Level FlightAware Approximate
12:54AM 49.4879 115.0117 195° South  Level FlightAware Approximate
12:55AM 49.3643 114.9613 195° South  Level FlightAware Approximate
12:56AM 49.2407 114.9111 195° South  Level FlightAware Approximate
12:57AM 49.1171 114.8611 195° South  Level FlightAware Approximate
12:58AM 48.9935 114.8114 195° South  Level FlightAware Approximate
12:59AM 48.8698 114.7619 195° South  Level FlightAware Approximate
01:00AM 48.7463 114.7127 195° South  Level FlightAware Approximate
01:01AM 48.6228 114.6638 195° South  Level FlightAware Approximate
01:02AM 48.4992 114.6151 195° South  Level FlightAware Approximate
01:03AM 48.3756 114.5667 168° South  Level FlightAware Approximate
01:04AM 48.2505 114.6054 168° South  Level FlightAware Approximate
01:05AM 48.1254 114.6440 168° South  Level FlightAware Approximate
01:06AM 48.0003 114.6823 168° South  Level FlightAware Approximate
01:07AM 47.8752 114.7205 168° South  Level FlightAware Approximate
01:08AM 47.7501 114.7585 168° South  Level FlightAware Approximate
01:09AM 47.6250 114.7963 169° South  Level FlightAware Approximate
01:10AM 47.4998 114.8339 169° South  Level FlightAware Approximate
01:11AM 47.3746 114.8714 169° South  Level FlightAware Approximate
01:12AM 47.2495 114.9086 169° South  Level FlightAware Approximate
01:13AM 47.1243 114.9457 169° South  Level FlightAware Approximate
01:14AM 46.9991 114.9826 169° South  Level FlightAware Approximate
01:15AM 46.8739 115.0194 169° South  Level FlightAware Approximate
01:16AM 46.7486 115.0560 169° South  Level FlightAware Approximate
01:17AM 46.6234 115.0924 171° South  Level FlightAware Approximate
01:18AM 46.4972 115.1206 171° South  Level FlightAware Approximate
01:19AM 46.3710 115.1488 171° South  Level FlightAware Approximate
01:20AM 46.2448 115.1768 171° South  Level FlightAware Approximate
01:21AM 46.1185 115.2047 171° South  Level FlightAware Approximate
01:22AM 45.9923 115.2324 171° South  Level FlightAware Approximate
01:23AM 45.8660 115.2601 171° South  Level FlightAware Approximate
01:24AM 45.7398 115.2876 171° South  Level FlightAware Approximate
01:25AM 45.6135 115.3149 171° South  Level FlightAware Approximate
01:26AM 45.4874 115.3422 171° South  Level FlightAware Approximate
01:27AM 45.3613 115.3693 171° South  Level FlightAware Approximate
01:28AM 45.2351 115.3962 171° South  Level FlightAware Approximate
01:29AM 45.1090 115.4231 171° South  Level FlightAware Approximate
01:30AM 44.9829 115.4499 171° South  Level FlightAware Approximate
01:31AM 44.8567 115.4765 172° South  Level FlightAware Approximate
01:32AM 44.7306 115.5030 172° South  Level FlightAware Approximate
01:33AM 44.6044 115.5294 172° South  Level FlightAware Approximate
01:34AM 44.4782 115.5557 172° South  Level FlightAware Approximate
01:35AM 44.3521 115.5818 172° South  Level FlightAware Approximate
01:36AM 44.2259 115.6079 172° South  Level FlightAware Approximate
01:37AM 44.0997 115.6338 172° South  Level FlightAware Approximate
01:38AM 43.9735 115.6597 172° South  Level FlightAware Approximate
01:39AM 43.8473 115.6854 172° South  Level FlightAware Approximate
01:40AM 43.7211 115.7110 172° South  Level FlightAware Approximate
01:41AM 43.5949 115.7365 172° South  Level FlightAware Approximate
01:42AM 43.4687 115.7619 172° South  Level FlightAware Approximate
01:43AM 43.3425 115.7872 172° South  Level FlightAware Approximate
01:44AM 43.2162 115.8124 172° South  Level FlightAware Approximate
01:45AM 43.0900 115.8375 172° South  Level FlightAware Approximate
01:46AM 42.9638 115.8625 172° South  Level FlightAware Approximate
01:47AM 42.8375 115.8873 172° South  Level FlightAware Approximate
01:48AM 42.7113 115.9121 172° South  Level FlightAware Approximate
01:49AM 42.5850 115.9368 172° South  Level FlightAware Approximate
01:50AM 42.4588 115.9614 172° South  Level FlightAware Approximate
01:51AM 42.3325 115.9858 172° South  Level FlightAware Approximate
01:52AM 42.2062 116.0102 172° South  Level FlightAware Approximate
01:53AM 42.0800 116.0345 172° South  Level FlightAware Approximate
01:54AM 41.9537 116.0587 172° South  Level FlightAware Approximate
01:55AM 41.8274 116.0828 172° South  Level FlightAware Approximate
01:56AM 41.7011 116.1068 172° South  Level FlightAware Approximate
01:57AM 41.5748 116.1307 172° South  Level FlightAware Approximate
01:58AM 41.4485 116.1545 172° South  Level FlightAware Approximate
01:59AM 41.3222 116.1782 172° South  Level FlightAware Approximate
02:00AM 41.1959 116.2018 172° South  Level FlightAware Approximate
02:01AM 41.0696 116.2253 172° South  Level FlightAware Approximate
02:02AM 40.9433 116.2488 172° South  Level FlightAware Approximate
02:03AM 40.8170 116.2721 172° South  Level FlightAware Approximate
02:04AM 40.6906 116.2954 172° South  Level FlightAware Approximate
02:05AM 40.5643 116.3186 172° South  Level FlightAware Approximate
02:06AM 40.4380 116.3417 168° South  Level FlightAware Approximate
02:07AM 40.3132 116.3763 168° South  Level FlightAware Approximate
02:08AM 40.1884 116.4107 168° South  Level FlightAware Approximate
02:09AM 40.0635 116.4450 168° South  Level FlightAware Approximate
02:10AM 39.9387 116.4792 168° South  Level FlightAware Approximate
02:11AM 39.8139 116.5133 168° South  Level FlightAware Approximate
02:12AM 39.6890 116.5472 168° South  Level FlightAware Approximate
02:13AM 39.5642 116.5810 168° South  Level FlightAware Approximate
02:14AM 39.4393 116.6147 168° South  Level FlightAware Approximate
02:15AM 39.3144 116.6483 168° South  Level FlightAware Approximate
02:16AM 39.1895 116.6818 168° South  Level FlightAware Approximate
02:17AM 39.0646 116.7151 168° South  Level FlightAware Approximate
02:18AM 38.9397 116.7483 168° South  Level FlightAware Approximate
02:19AM 38.8148 116.7814 168° South  Level FlightAware Approximate
02:20AM 38.6898 116.8144 168° South  Level FlightAware Approximate
02:21AM 38.5649 116.8473 168° South  Level FlightAware Approximate
02:22AM 38.4400 116.8801 168° South  Level FlightAware Approximate
02:23AM 38.3150 116.9127 168° South  Level FlightAware Approximate
02:24AM 38.1903 116.9472 168° South  Level FlightAware Approximate
02:25AM 38.0657 116.9815 168° South  Level FlightAware Approximate
02:26AM 37.9410 117.0157 168° South  Level FlightAware Approximate
02:27AM 37.8163 117.0498 168° South  Level FlightAware Approximate
02:28AM 37.6917 117.0838 168° South  Level FlightAware Approximate
02:29AM 37.5670 117.1177 168° South  Level FlightAware Approximate
02:30AM 37.4422 117.1515 168° South  Level FlightAware Approximate
02:31AM 37.3175 117.1851 157° South  Level FlightAware Approximate
02:32AM 37.2004 117.2487 157° South  Level FlightAware Approximate
02:33AM 37.0833 117.3120 157° South  Level FlightAware Approximate
02:34AM 36.9661 117.3752 157° South  Level FlightAware Approximate
02:35AM 36.8489 117.4381 157° South  Level FlightAware Approximate
02:36AM 36.7317 117.5009 157° South  Level FlightAware Approximate
02:37AM 36.6145 117.5635 157° South  Level FlightAware Approximate
02:38AM 36.4972 117.6259 157° South  Level FlightAware Approximate
02:39AM 36.3798 117.6881 157° South  Level FlightAware Approximate
02:40AM 36.2625 117.7501 157° South  Level FlightAware Approximate
02:41AM 36.1451 117.8119 157° South  Level FlightAware Approximate
02:42AM 36.0277 117.8736 157° South  Level FlightAware Approximate
02:43AM 35.9103 117.9351 156° South  Level FlightAware Approximate
02:44AM 35.7935 117.9985 156° South  Level FlightAware Approximate
02:45AM 35.6768 118.0618 156° South  Level FlightAware Approximate
02:46AM 35.5600 118.1249 156° South  Level FlightAware Approximate
02:47AM 35.4432 118.1878 156° South  Level FlightAware Approximate
02:48AM 35.3263 118.2505 156° South  Level FlightAware Approximate
02:49AM 35.2094 118.3130 155° Southeast  Level FlightAware Approximate
02:50AM 35.0941 118.3797 144° Southeast  Level FlightAware Approximate
02:51AM 34.9912 118.4717 144° Southeast  Level FlightAware Approximate
02:52AM 34.8882 118.5635 144° Southeast  Level FlightAware Approximate
02:53AM 34.7851 118.6550 144° Southeast  Level FlightAware Approximate
02:54AM 34.6819 118.7463 144° Southeast  Level FlightAware Approximate
02:55AM 34.5788 118.8373 144° Southeast  Level FlightAware Approximate
02:56AM 34.4757 118.9280 144° Southeast  Level FlightAware Approximate
02:57AM 34.3725 119.0185 144° Southeast  Level FlightAware Approximate
02:58AM 34.2692 119.1088 144° Southeast  Level FlightAware Approximate
02:59AM 34.1657 119.1990 144° Southeast  Level FlightAware Approximate
03:00AM 34.0621 119.2890 144° Southeast  Level FlightAware Approximate
03:01AM 33.9585 119.3787 144° Southeast  Level FlightAware Approximate
03:02AM 33.8549 119.4682 144° Southeast  Level FlightAware Approximate
03:03AM 33.7511 119.5575 144° Southeast  Level FlightAware Approximate
03:04AM 33.6473 119.6466 144° Southeast  Level FlightAware Approximate
03:05AM 33.5434 119.7355 145° Southeast  Level FlightAware Approximate
03:06AM 33.4395 119.8242 145° Southeast  Level FlightAware Approximate
03:07AM 33.3355 119.9126 145° Southeast  Level FlightAware Approximate
03:08AM 33.2314 120.0009 145° Southeast  Level FlightAware Approximate
03:09AM 33.1273 120.0889 145° Southeast  Level FlightAware Approximate
03:10AM 33.0231 120.1767 145° Southeast  Level FlightAware Approximate
03:11AM 32.9189 120.2643 145° Southeast  Level FlightAware Approximate
03:12AM 32.8146 120.3517 145° Southeast  Level FlightAware Approximate
03:13AM 32.7102 120.4389 145° Southeast  Level FlightAware Approximate
03:14AM 32.6058 120.5259 145° Southeast  Level FlightAware Approximate
03:15AM 32.5012 120.6128 145° Southeast  Level FlightAware Approximate
03:16AM 32.3965 120.6995 145° Southeast  Level FlightAware Approximate
03:17AM 32.2918 120.7860 145° Southeast  Level FlightAware Approximate
03:18AM 32.1870 120.8723 145° Southeast  Level FlightAware Approximate
03:19AM 32.0822 120.9584 145° Southeast  Level FlightAware Approximate
03:20AM 31.9773 121.0443 145° Southeast  Level FlightAware Approximate
03:21AM 31.8723 121.1300 145° Southeast  Level FlightAware Approximate
03:22AM 31.7673 121.2155 145° Southeast  Level FlightAware Approximate
03:23AM 31.6622 121.3008 145° Southeast  Level FlightAware Approximate
03:24AM 31.5571 121.3859 145° Southeast  Level FlightAware Approximate
03:25AM 31.4519 121.4709 145° Southeast  Level FlightAware Approximate
03:26AM 31.3467 121.5556 146° Southeast  Level FlightAware Approximate
03:27AM 31.2414 121.6402 137° Southeast  Level FlightAware Approximate
03:28AM 31.1509 121.7393 100° East  Level FlightAware Approximate
03:29AM 31.1283 121.8862 292° West  Level Estimated
03:30AM 31.6718 120.2444 112° Southeast  Level FlightAware Approximate
03:31AM 31.6244 120.3837 112° Southeast  Level FlightAware Approximate
03:32AM 31.5768 120.5229 112° Southeast  Level FlightAware Approximate
03:33AM 31.5292 120.6619 112° Southeast  Level FlightAware Approximate
03:34AM 31.4813 120.8007 112° Southeast  Level FlightAware Approximate
03:35AM 31.4333 120.9395 112° Southeast  Level FlightAware Approximate
03:36AM 31.3852 121.0780 112° Southeast  Level FlightAware Approximate
03:37AM 31.3369 121.2165 112° Southeast  Level FlightAware Approximate
03:38AM 31.2885 121.3548 112° Southeast  Level FlightAware Approximate
03:39AM 31.2399 121.4930 112° Southeast  Level FlightAware Approximate
03:40AM 31.1911 121.6310 114° Southeast  Level FlightAware Approximate
03:41AM 31.1397 121.7675 82° East  Level FlightAware Approximate
03:42AM 31.1582 121.9152 262° West  Level Estimated
03:43AM 31.1397 121.7675 82° East  Level Estimated
03:44AM 31.1582 121.9152 258° West  Level Estimated
03:45AM 31.1333 121.7833 39° Northeast  Level FlightAware Approximate
03:46AM 31.2322 121.8778 39° Northeast  Level Estimated